Time;durP1;ratioP1;P1;durP2;ratioP2;P2;SDS_P1;SDS_P2;PMS_P1;PMS_P2;Temp;Humidity;BMP_temperature;BMP_pressure;BME280_temperature;BME280_humidity;BME280_pressure;Samples;Min_cycle;Max_cycle;Signal;HPM_P1;HPM_P2
2022/05/20 00:01:28;;;;;;;8.60;4.43;;;17.00;85.50;;;;;;4591035;19;20044;-21
2022/05/20 00:02:59;;;;;;;;;;;17.10;85.80;;;;;;4592029;19;20354;-20
2022/05/20 00:04:30;;;;;;;7.30;4.05;;;17.20;86.30;;;;;;4590342;19;19919;-21
2022/05/20 00:06:01;;;;;;;8.60;4.82;;;17.20;86.90;;;;;;4591179;19;20011;-20
2022/05/20 00:07:35;;;;;;;5.25;3.97;;;17.30;86.90;;;;;;4590523;19;20007;-20
2022/05/20 00:09:06;;;;;;;8.48;4.78;;;17.30;86.70;;;;;;4590121;19;20018;-21
2022/05/20 00:10:37;;;;;;;7.07;4.45;;;17.30;86.40;;;;;;4591102;19;20475;-20
2022/05/20 00:12:09;;;;;;;10.63;4.95;;;17.40;86.20;;;;;;4591356;19;20018;-21
2022/05/20 00:13:40;;;;;;;;;;;17.40;86.20;;;;;;4592477;19;20003;-21
2022/05/20 00:15:12;;;;;;;;;;;17.40;86.40;;;;;;4592555;19;19926;-21
2022/05/20 00:16:43;;;;;;;;;;;17.50;86.40;;;;;;4590664;19;20293;-21
2022/05/20 00:18:14;;;;;;;;;;;17.50;86.20;;;;;;4591616;19;19938;-20
2022/05/20 00:19:45;;;;;;;;;;;17.50;86.00;;;;;;4592791;19;20345;-21
2022/05/20 00:21:16;;;;;;;;;;;17.50;85.60;;;;;;4590615;19;19922;-21
2022/05/20 00:22:47;;;;;;;;;;;17.50;85.20;;;;;;4590750;19;20290;-21
2022/05/20 00:24:18;;;;;;;;;;;17.60;85.00;;;;;;4593547;19;19915;-21
2022/05/20 00:25:49;;;;;;;;;;;17.60;85.00;;;;;;4595265;19;19997;-21
2022/05/20 00:27:19;;;;;;;;;;;17.60;85.00;;;;;;4592502;19;19929;-21
2022/05/20 00:28:53;;;;;;;;;;;17.60;85.10;;;;;;4594075;19;20337;-21
2022/05/20 00:30:24;;;;;;;;;;;17.60;85.30;;;;;;4593046;19;19925;-20
2022/05/20 00:31:55;;;;;;;;;;;17.60;85.60;;;;;;4593715;19;19919;-20
2022/05/20 00:33:26;;;;;;;;;;;17.60;85.80;;;;;;4591114;19;19918;-21
2022/05/20 00:34:57;;;;;;;;;;;17.60;85.90;;;;;;4593436;19;20329;-20
2022/05/20 00:36:28;;;;;;;;;;;17.60;86.00;;;;;;4591768;19;19919;-21
2022/05/20 00:37:59;;;;;;;;;;;17.60;86.10;;;;;;4590662;19;20004;-21
2022/05/20 00:39:30;;;;;;;;;;;17.60;86.40;;;;;;4591492;19;20348;-21
2022/05/20 00:41:01;;;;;;;;;;;17.60;86.60;;;;;;4591937;19;19926;-21
2022/05/20 00:42:32;;;;;;;;;;;17.70;86.60;;;;;;4592048;19;19911;-21
2022/05/20 00:44:03;;;;;;;;;;;17.60;86.80;;;;;;4589959;19;19923;-21
2022/05/20 00:45:34;;;;;;;;;;;17.60;87.40;;;;;;4593100;19;19926;-20
2022/05/20 00:47:05;;;;;;;;;;;17.60;87.80;;;;;;4592124;19;19982;-21
2022/05/20 00:48:36;;;;;;;;;;;17.60;88.50;;;;;;4592818;19;19942;-21
2022/05/20 00:50:12;;;;;;;;;;;17.70;87.80;;;;;;4591620;19;19983;-20
2022/05/20 00:51:48;;;;;;;;;;;17.70;87.80;;;;;;4592678;19;19935;-21
2022/05/20 00:53:19;;;;;;;;;;;17.60;87.60;;;;;;4592415;19;19925;-21
2022/05/20 00:54:51;;;;;;;;;;;17.60;87.80;;;;;;4592559;19;19929;-21
2022/05/20 00:56:28;;;;;;;;;;;17.60;88.30;;;;;;4591170;19;19932;-21
2022/05/20 00:58:04;;;;;;;;;;;17.70;88.20;;;;;;4592998;19;19921;-21
2022/05/20 00:59:36;;;;;;;;;;;17.60;88.00;;;;;;4589998;19;19985;-21
2022/05/20 01:01:07;;;;;;;;;;;17.70;87.90;;;;;;4589640;19;20389;-20
2022/05/20 01:02:38;;;;;;;;;;;17.60;88.10;;;;;;4590701;19;19929;-21
2022/05/20 01:04:09;;;;;;;;;;;17.70;88.30;;;;;;4589963;19;20329;-20
2022/05/20 01:05:44;;;;;;;;;;;17.70;88.40;;;;;;4591656;19;19927;-21
2022/05/20 01:07:15;;;;;;;;;;;17.60;88.70;;;;;;4590072;19;19966;-21
2022/05/20 01:08:46;;;;;;;;;;;17.70;88.60;;;;;;4589987;19;19923;-21
2022/05/20 01:10:17;;;;;;;;;;;17.60;88.50;;;;;;4590784;19;19918;-21
2022/05/20 01:11:48;;;;;;;;;;;17.70;88.70;;;;;;4591124;19;19982;-21
2022/05/20 01:13:19;;;;;;;;;;;17.70;88.70;;;;;;4589774;19;20333;-21
2022/05/20 01:14:50;;;;;;;;;;;17.70;88.70;;;;;;4589622;19;19915;-21
2022/05/20 01:16:21;;;;;;;;;;;17.70;88.70;;;;;;4590107;19;19938;-20
2022/05/20 01:17:52;;;;;;;;;;;17.60;88.30;;;;;;4590187;19;19918;-21
2022/05/20 01:19:26;;;;;;;;;;;17.70;88.10;;;;;;4589729;19;19918;-20
2022/05/20 01:20:57;;;;;;;;;;;17.70;88.00;;;;;;4590385;19;19925;-21
2022/05/20 01:22:28;;;;;;;;;;;17.70;88.20;;;;;;4591289;19;19911;-21
2022/05/20 01:24:02;;;;;;;;;;;17.70;88.00;;;;;;4589957;19;19930;-21
2022/05/20 01:25:33;;;;;;;;;;;17.70;87.70;;;;;;4590436;19;19947;-21
2022/05/20 01:27:04;;;;;;;;;;;17.70;87.30;;;;;;4591139;19;20329;-21
2022/05/20 01:28:35;;;;;;;;;;;17.70;87.10;;;;;;4591524;19;19915;-20
2022/05/20 01:30:06;;;;;;;;;;;17.70;87.40;;;;;;4589454;19;19922;-20
2022/05/20 01:31:37;;;;;;;;;;;17.70;87.50;;;;;;4590355;19;19949;-21
2022/05/20 01:33:08;;;;;;;;;;;17.70;87.50;;;;;;4589651;19;19911;-20
2022/05/20 01:34:39;;;;;;;;;;;17.70;87.80;;;;;;4590536;19;19915;-21
2022/05/20 01:36:11;;;;;;;;;;;17.70;87.70;;;;;;4590432;19;19930;-20
2022/05/20 01:37:42;;;;;;;;;;;17.70;88.20;;;;;;4590706;19;19919;-20
2022/05/20 01:39:13;;;;;;;;;;;17.80;87.80;;;;;;4590529;19;20373;-21
2022/05/20 01:40:45;;;;;;;;;;;17.70;87.80;;;;;;4591315;19;19919;-21
2022/05/20 01:42:20;;;;;;;;;;;17.70;87.80;;;;;;4589466;19;19915;-21
2022/05/20 01:43:59;;;;;;;;;;;17.70;87.90;;;;;;4588759;19;19923;-20
2022/05/20 01:46:00;;;;;;;;;;;17.70;88.10;;;;;;4589331;19;20273;-20
2022/05/20 01:47:31;;;;;;;;;;;17.70;88.10;;;;;;4589274;19;19915;-21
2022/05/20 01:49:05;;;;;;;;;;;17.70;88.00;;;;;;4590528;19;20318;-20
2022/05/20 01:50:41;;;;;;;;;;;17.70;88.10;;;;;;4590467;19;20255;-21
2022/05/20 01:52:15;;;;;;;;;;;17.70;88.10;;;;;;4589115;19;19919;-21
2022/05/20 01:53:52;;;;;;;;;;;17.70;88.10;;;;;;4589374;19;20279;-20
2022/05/20 01:55:23;;;;;;;;;;;17.70;88.30;;;;;;4589601;19;19949;-21
2022/05/20 01:56:56;;;;;;;;;;;17.70;88.60;;;;;;4589720;19;19991;-21
2022/05/20 01:58:32;;;;;;;;;;;17.70;89.00;;;;;;4589299;19;19919;-20
2022/05/20 02:00:06;;;;;;;;;;;17.70;89.10;;;;;;4590155;19;19919;-21
2022/05/20 02:01:37;;;;;;;;;;;17.70;89.30;;;;;;4590503;19;20329;-21
2022/05/20 02:03:19;;;;;;;;;;;17.70;89.20;;;;;;4588668;19;19914;-21
2022/05/20 02:04:52;;;;;;;;;;;17.60;89.30;;;;;;4589036;19;19991;-21
2022/05/20 02:06:25;;;;;;;;;;;17.60;89.30;;;;;;4589462;19;19919;-21
2022/05/20 02:07:58;;;;;;;;;;;17.70;89.30;;;;;;4588960;19;19919;-21
2022/05/20 02:09:49;;;;;;;;;;;17.70;89.30;;;;;;4589522;19;19934;-21
2022/05/20 02:11:23;;;;;;;;;;;17.70;89.50;;;;;;4589462;19;20245;-21
2022/05/20 02:12:54;;;;;;;;;;;17.70;89.70;;;;;;4592039;19;19911;-21
2022/05/20 02:14:35;;;;;;;;;;;17.70;89.90;;;;;;4593515;19;19966;-20
2022/05/20 02:16:11;;;;;;;;;;;17.70;89.90;;;;;;4594454;19;20332;-21
2022/05/20 02:17:43;;;;;;;;;;;17.70;89.80;;;;;;4593471;19;19915;-21
2022/05/20 02:19:18;;;;;;;;;;;17.60;90.00;;;;;;4594122;19;19949;-21
2022/05/20 02:20:49;;;;;;;;;;;17.70;90.10;;;;;;4594586;19;20270;-21
2022/05/20 02:22:21;;;;;;;;;;;17.70;90.20;;;;;;4593579;19;19918;-21
2022/05/20 02:23:57;;;;;;;;;;;17.70;90.30;;;;;;4592746;19;19978;-21
2022/05/20 02:25:28;;;;;;;;;;;17.60;90.30;;;;;;4593239;19;19915;-21
2022/05/20 02:27:04;;;;;;;;;;;17.60;90.30;;;;;;4593532;19;19922;-21
2022/05/20 02:28:42;;;;;;;;;;;17.60;90.70;;;;;;4593545;19;19915;-21
2022/05/20 02:30:17;;;;;;;;;;;17.60;90.60;;;;;;4592817;19;19915;-21
2022/05/20 02:31:54;;;;;;;;;;;17.60;90.70;;;;;;4592887;19;19919;-21
2022/05/20 02:33:25;;;;;;;;;;;17.60;90.70;;;;;;4593273;19;19937;-20
2022/05/20 02:34:56;;;;;;;;;;;17.60;90.70;;;;;;4592994;19;20337;-21
2022/05/20 02:36:31;;;;;;;;;;;17.60;90.60;;;;;;4593385;19;19918;-20
2022/05/20 02:38:03;;;;;;;;;;;17.60;90.70;;;;;;4594258;19;19952;-20
2022/05/20 02:39:34;;;;;;;;;;;17.60;90.90;;;;;;4594409;19;19919;-21
2022/05/20 02:41:05;;;;;;;;;;;17.60;90.70;;;;;;4593644;19;19922;-21
2022/05/20 02:42:36;;;;;;;;;;;17.60;90.70;;;;;;4593560;19;19941;-21
2022/05/20 02:44:07;;;;;;;;;;;17.60;90.70;;;;;;4592786;19;19919;-21
2022/05/20 02:45:38;;;;;;;;;;;17.60;90.70;;;;;;4594114;19;19919;-21
2022/05/20 02:47:10;;;;;;;;;;;17.60;90.80;;;;;;4593590;19;19923;-21
2022/05/20 02:48:41;;;;;;;;;;;17.60;90.80;;;;;;4593986;19;20330;-21
2022/05/20 02:50:12;;;;;;;;;;;17.70;90.80;;;;;;4593051;19;19998;-21
2022/05/20 02:51:43;;;;;;;;;;;17.60;90.90;;;;;;4593764;19;19911;-21
2022/05/20 02:53:14;;;;;;;;;;;17.60;90.90;;;;;;4593622;19;19930;-21
2022/05/20 02:54:45;;;;;;;;;;;17.70;90.90;;;;;;4592121;19;20376;-21
2022/05/20 02:56:16;;;;;;;;;;;17.70;90.90;;;;;;4593725;19;19978;-21
2022/05/20 02:57:47;;;;;;;;;;;17.70;90.90;;;;;;4594466;19;19935;-21
2022/05/20 03:05:00;;;;;;;;;;;17.70;90.90;;;;;;4591134;19;19943;-20
2022/05/20 03:06:31;;;;;;;;;;;17.70;90.90;;;;;;4591516;19;19918;-21
2022/05/20 03:08:02;;;;;;;;;;;17.70;90.90;;;;;;4591039;19;20264;-21
2022/05/20 03:09:33;;;;;;;;;;;17.70;91.00;;;;;;4591325;19;19922;-21
2022/05/20 03:11:04;;;;;;;;;;;17.60;91.00;;;;;;4590897;19;20284;-20
2022/05/20 03:12:35;;;;;;;;;;;17.70;91.10;;;;;;4591141;19;20297;-21
2022/05/20 03:14:08;;;;;;;;;;;17.60;91.10;;;;;;4590878;19;19915;-20
2022/05/20 03:15:39;;;;;;;;;;;17.60;91.20;;;;;;4590844;19;19919;-21
2022/05/20 03:17:10;;;;;;;;;;;17.60;91.30;;;;;;4591275;19;19918;-21
2022/05/20 03:18:41;;;;;;;;;;;17.70;91.30;;;;;;4591255;19;19974;-21
2022/05/20 03:20:12;;;;;;;;;;;17.60;91.20;;;;;;4590742;19;20271;-21
2022/05/20 03:21:43;;;;;;;;;;;17.60;91.20;;;;;;4590949;19;19925;-21
2022/05/20 03:23:14;;;;;;;;;;;17.60;91.30;;;;;;4590462;19;20260;-21
2022/05/20 03:24:45;;;;;;;;;;;17.70;91.40;;;;;;4590929;19;19906;-21
2022/05/20 03:26:16;;;;;;;;;;;17.70;91.30;;;;;;4590848;19;19927;-21
2022/05/20 03:27:47;;;;;;;;;;;17.60;91.30;;;;;;4591054;19;20243;-21
2022/05/20 03:29:18;;;;;;;;;;;17.70;91.50;;;;;;4590830;19;19919;-21
2022/05/20 03:30:49;;;;;;;;;;;17.60;91.50;;;;;;4590772;19;20407;-21
2022/05/20 03:32:20;;;;;;;;;;;17.60;91.50;;;;;;4590865;19;19916;-21
2022/05/20 03:33:51;;;;;;;;;;;17.70;91.50;;;;;;4590166;19;19919;-21
2022/05/20 03:35:22;;;;;;;;;;;17.70;91.60;;;;;;4591065;19;20009;-21
2022/05/20 03:36:53;;;;;;;;;;;17.70;91.60;;;;;;4590488;19;19943;-21
2022/05/20 03:38:24;;;;;;;;;;;17.70;91.60;;;;;;4590965;19;19911;-20
2022/05/20 03:39:57;;;;;;;;;;;17.70;91.60;;;;;;4590928;19;19925;-20
2022/05/20 03:41:28;;;;;;;;;;;17.70;91.70;;;;;;4592312;19;19925;-21
2022/05/20 03:42:59;;;;;;;;;;;17.70;91.80;;;;;;4592789;19;19919;-20
2022/05/20 03:44:30;;;;;;;;;;;17.70;91.80;;;;;;4592731;19;20253;-21
2022/05/20 03:46:01;;;;;;;;;;;17.70;91.80;;;;;;4591859;19;19971;-21
2022/05/20 03:47:32;;;;;;;;;;;17.70;91.70;;;;;;4591866;19;19919;-21
2022/05/20 03:49:02;;;;;;;;;;;17.70;91.70;;;;;;4592473;19;20230;-21
2022/05/20 03:50:34;;;;;;;;;;;17.70;91.80;;;;;;4592633;19;20257;-21
2022/05/20 03:52:04;;;;;;;;;;;17.70;91.80;;;;;;4592664;19;19920;-20
2022/05/20 03:53:35;;;;;;;;;;;17.70;91.80;;;;;;4591070;19;20245;-20
2022/05/20 03:55:07;;;;;;;;;;;17.70;91.90;;;;;;4591175;19;20263;-21
2022/05/20 03:56:40;;;;;;;;;;;17.70;91.90;;;;;;4592180;19;19970;-21
2022/05/20 03:58:11;;;;;;;;;;;17.70;92.00;;;;;;4592629;19;19987;-20
2022/05/20 03:59:41;;;;;;;;;;;17.80;92.10;;;;;;4592500;19;20325;-21
2022/05/20 04:03:02;;;;;;;;;;;17.80;92.00;;;;;;4591204;19;19925;-20
2022/05/20 04:04:34;;;;;;;;;;;17.70;92.10;;;;;;4592810;19;19914;-20
2022/05/20 04:06:05;;;;;;;;;;;17.80;92.20;;;;;;4592224;19;19914;-21
2022/05/20 04:07:38;;;;;;;;;;;17.80;92.40;;;;;;4592196;19;19934;-20
2022/05/20 04:09:09;;;;;;;;;;;17.70;92.20;;;;;;4591952;19;20290;-21
2022/05/20 04:10:40;;;;;;;;;;;17.70;92.20;;;;;;4592743;19;19926;-20
2022/05/20 04:12:30;;;;;;;;;;;17.70;92.20;;;;;;4592218;19;19978;-21
2022/05/20 04:14:01;;;;;;;;;;;17.70;92.30;;;;;;4591284;19;19986;-21
2022/05/20 04:15:33;;;;;;;;;;;17.70;92.40;;;;;;4592014;19;19914;-20
2022/05/20 04:17:04;;;;;;;;;;;17.80;92.30;;;;;;4592565;19;19922;-21
2022/05/20 04:18:35;;;;;;;;;;;17.80;92.30;;;;;;4591757;19;19922;-21
2022/05/20 04:20:06;;;;;;;;;;;17.70;92.30;;;;;;4591958;19;19974;-21
2022/05/20 04:21:37;;;;;;;;;;;17.80;92.40;;;;;;4592369;19;19952;-21
2022/05/20 04:23:08;;;;;;;;;;;17.80;92.70;;;;;;4591890;19;19946;-21
2022/05/20 04:24:39;;;;;;;;;;;17.80;92.50;;;;;;4591918;19;19974;-21
2022/05/20 04:26:10;;;;;;;;;;;17.80;92.60;;;;;;4591591;19;19925;-21
2022/05/20 04:27:41;;;;;;;;;;;17.90;92.50;;;;;;4592355;19;19915;-21
2022/05/20 04:29:12;;;;;;;;;;;17.90;92.60;;;;;;4589135;19;19921;-21
2022/05/20 04:30:43;;;;;;;;;;;17.90;92.60;;;;;;4589403;19;19921;-21
2022/05/20 04:32:14;;;;;;;;;;;17.90;92.60;;;;;;4589865;19;19921;-21
2022/05/20 04:33:46;;;;;;;;;;;17.90;92.50;;;;;;4588759;19;19986;-20
2022/05/20 04:35:17;;;;;;;;;;;17.90;92.50;;;;;;4588199;19;19925;-21
2022/05/20 04:36:48;;;;;;;;;;;18.00;92.60;;;;;;4589635;19;19934;-21
2022/05/20 04:38:19;;;;;;;;;;;18.00;92.60;;;;;;4590077;19;20011;-21
2022/05/20 04:39:50;;;;;;;;;;;18.00;92.70;;;;;;4589667;19;19911;-20
2022/05/20 04:46:58;;;;;;;;;;;18.10;92.70;;;;;;4590780;19;19979;-22
2022/05/20 04:48:29;;;;;;;;;;;18.10;92.90;;;;;;4587861;19;19930;-21
2022/05/20 04:50:00;;;;;;;;;;;18.10;92.90;;;;;;4588293;19;20283;-21
2022/05/20 04:51:32;;;;;;;;;;;18.10;92.90;;;;;;4588293;19;19922;-21
2022/05/20 04:53:03;;;;;;;;;;;18.20;92.80;;;;;;4588504;19;20346;-21
2022/05/20 04:56:23;;;;;;;;;;;18.20;92.70;;;;;;4588696;19;19922;-21
2022/05/20 04:57:54;;;;;;;;;;;18.20;92.80;;;;;;4588311;19;19915;-21
2022/05/20 04:59:25;;;;;;;;;;;18.20;92.70;;;;;;4588538;19;19922;-22
2022/05/20 05:00:56;;;;;;;;;;;18.30;92.70;;;;;;4590141;19;19915;-21
2022/05/20 05:02:27;;;;;;;;;;;18.30;92.80;;;;;;4590637;19;19911;-21
2022/05/20 05:03:58;;;;;;;;;;;18.30;92.90;;;;;;4589242;19;20011;-21
2022/05/20 05:05:29;;;;;;;;;;;18.20;92.90;;;;;;4591038;19;19919;-21
2022/05/20 05:07:00;;;;;;;;;;;18.30;92.90;;;;;;4590354;19;19918;-21
2022/05/20 05:08:31;;;;;;;;;;;18.30;92.80;;;;;;4590698;19;19927;-21
2022/05/20 05:10:02;;;;;;;;;;;18.30;92.80;;;;;;4591071;19;19987;-21
2022/05/20 05:11:36;;;;;;;;;;;18.30;92.90;;;;;;4590504;19;19915;-21
2022/05/20 05:13:09;;;;;;;;;;;18.30;92.90;;;;;;4590413;19;19982;-21
2022/05/20 05:14:44;;;;;;;;;;;18.30;92.90;;;;;;4590870;19;19914;-21
2022/05/20 05:16:15;;;;;;;;;;;18.30;93.20;;;;;;4590611;19;19919;-21
2022/05/20 05:19:36;;;;;;;;;;;18.60;92.80;;;;;;4591177;19;19919;-21
2022/05/20 05:21:06;;;;;;;;;;;18.80;92.60;;;;;;4590747;19;19952;-22
2022/05/20 05:22:37;;;;;;;;;;;18.90;92.40;;;;;;4590569;19;19919;-21
2022/05/20 05:24:09;;;;;;;;;;;19.00;92.20;;;;;;4590024;19;20326;-21
2022/05/20 05:25:40;;;;;;;;;;;19.00;92.20;;;;;;4591607;19;19930;-21
2022/05/20 05:27:11;;;;;;;;;;;19.10;92.40;;;;;;4590353;19;19918;-21
2022/05/20 05:28:43;;;;;;;;;;;19.20;91.90;;;;;;4590680;19;20268;-22
2022/05/20 05:30:14;;;;;;;;;;;19.20;91.80;;;;;;4591439;19;19956;-22
2022/05/20 05:31:45;;;;;;;;;;;19.20;91.80;;;;;;4590744;19;19915;-21
2022/05/20 05:33:16;;;;;;;;;;;19.30;92.00;;;;;;4590156;19;19926;-21
2022/05/20 05:34:47;;;;;;;;;;;19.30;91.70;;;;;;4590304;19;19923;-22
2022/05/20 05:36:19;;;;;;;;;;;19.30;91.50;;;;;;4590881;19;19919;-21
2022/05/20 05:37:50;;;;;;;;;;;19.30;91.60;;;;;;4590482;19;19915;-22
2022/05/20 05:39:21;;;;;;;;;;;19.30;91.60;;;;;;4589411;19;19923;-21
2022/05/20 05:40:52;;;;;;;;;;;19.40;91.50;;;;;;4588190;19;19914;-22
2022/05/20 05:42:23;;;;;;;;;;;19.40;91.70;;;;;;4589740;19;19923;-21
2022/05/20 05:43:55;;;;;;;;;;;19.50;91.60;;;;;;4589479;19;20250;-21
2022/05/20 05:45:27;;;;;;;;;;;19.50;91.60;;;;;;4590734;19;20321;-21
2022/05/20 05:46:58;;;;;;;8.32;4.35;;;19.50;91.50;;;;;;4590324;19;19911;-22
2022/05/20 05:48:29;;;;;;;5.20;3.03;;;19.70;92.00;;;;;;4594003;19;20334;-22
2022/05/20 05:50:00;;;;;;;4.53;3.20;;;19.60;91.40;;;;;;4594126;19;20020;-21
2022/05/20 05:51:31;;;;;;;8.57;3.72;;;19.60;91.40;;;;;;4594547;19;20070;-22
2022/05/20 05:53:13;;;;;;;6.63;3.70;;;19.70;92.20;;;;;;4593947;19;20371;-21
2022/05/20 05:54:44;;;;;;;4.13;2.60;;;19.80;91.90;;;;;;4592459;19;20034;-21
2022/05/20 05:56:15;;;;;;;5.70;3.17;;;19.80;91.50;;;;;;4593941;19;20040;-22
2022/05/20 05:57:46;;;;;;;4.95;2.90;;;19.80;91.60;;;;;;4594151;19;20042;-21
2022/05/20 05:59:17;;;;;;;3.80;3.13;;;19.80;91.20;;;;;;4594556;19;20006;-22
2022/05/20 06:00:48;;;;;;;6.32;3.17;;;19.80;91.20;;;;;;4593501;19;20408;-22
2022/05/20 06:02:21;;;;;;;5.35;2.85;;;19.80;92.00;;;;;;4592741;19;20421;-21
2022/05/20 06:03:52;;;;;;;5.07;3.33;;;19.90;91.40;;;;;;4593001;19;20002;-21
2022/05/20 06:05:23;;;;;;;4.38;2.92;;;19.90;91.10;;;;;;4593052;19;20371;-22
2022/05/20 06:06:54;;;;;;;6.70;3.08;;;19.90;91.50;;;;;;4592487;19;20007;-21
2022/05/20 06:08:25;;;;;;;4.57;3.43;;;19.90;91.00;;;;;;4593140;19;20011;-21
2022/05/20 06:09:56;;;;;;;;;;;19.90;91.10;;;;;;4593654;19;19911;-21
2022/05/20 06:11:27;;;;;;;;;;;19.90;91.20;;;;;;4593427;19;19915;-21
2022/05/20 06:12:58;;;;;;;;;;;20.10;91.80;;;;;;4594494;19;20349;-21
2022/05/20 06:14:29;;;;;;;;;;;20.10;90.90;;;;;;4594545;19;19915;-21
2022/05/20 06:16:00;;;;;;;;;;;20.10;90.80;;;;;;4594784;19;20335;-21
2022/05/20 06:17:31;;;;;;;;;;;20.00;91.00;;;;;;4594269;19;19919;-21
2022/05/20 06:19:02;;;;;;;;;;;20.20;92.40;;;;;;4594684;19;19926;-21
2022/05/20 06:20:33;;;;;;;;;;;20.20;91.60;;;;;;4594497;19;19914;-21
2022/05/20 06:22:04;;;;;;;;;;;20.30;91.20;;;;;;4594571;19;20234;-21
2022/05/20 06:23:35;;;;;;;;;;;20.40;91.80;;;;;;4593483;19;19934;-22
2022/05/20 06:25:07;;;;;;;;;;;20.60;92.30;;;;;;4594579;19;19911;-22
2022/05/20 06:26:38;;;;;;;;;;;20.60;91.30;;;;;;4594437;19;19924;-21
2022/05/20 06:28:10;;;;;;;;;;;20.40;91.00;;;;;;4594731;19;20246;-21
2022/05/20 06:29:41;;;;;;;;;;;20.40;91.20;;;;;;4594333;19;19926;-21
2022/05/20 06:31:12;;;;;;;;;;;20.30;91.40;;;;;;4594245;19;20237;-22
2022/05/20 06:32:43;;;;;;;;;;;20.20;91.70;;;;;;4594344;19;19923;-22
2022/05/20 06:34:14;;;;;;;;;;;20.40;92.40;;;;;;4592758;19;20258;-22
2022/05/20 06:41:18;;;;;;;;;;;20.40;91.80;;;;;;4591896;19;19915;-21
2022/05/20 06:42:49;;;;;;;;;;;20.40;92.10;;;;;;4592004;19;19973;-21
2022/05/20 06:44:20;;;;;;;;;;;20.50;92.10;;;;;;4590270;19;20273;-20
2022/05/20 06:45:52;;;;;;;;;;;20.70;92.40;;;;;;4591573;19;19929;-21
2022/05/20 06:47:23;;;;;;;;;;;20.70;91.60;;;;;;4592036;19;19990;-22
2022/05/20 06:48:55;;;;;;;;;;;20.70;92.80;;;;;;4592139;19;19911;-21
2022/05/20 06:50:26;;;;;;;;;;;20.80;91.80;;;;;;4591576;19;20418;-22
2022/05/20 06:51:59;;;;;;;;;;;20.60;91.60;;;;;;4591820;19;19915;-21
2022/05/20 06:53:30;;;;;;;;;;;20.50;91.80;;;;;;4591239;19;19919;-21
2022/05/20 06:55:01;;;;;;;;;;;20.40;92.10;;;;;;4590003;19;19950;-21
2022/05/20 06:56:32;;;;;;;;;;;20.30;92.10;;;;;;4591802;19;19922;-21
2022/05/20 06:58:03;;;;;;;;;;;20.30;92.10;;;;;;4590389;19;19932;-21
2022/05/20 06:59:35;;;;;;;;;;;20.40;92.50;;;;;;4591289;19;20018;-21
2022/05/20 07:01:06;;;;;;;;;;;20.40;92.10;;;;;;4591361;19;19922;-21
2022/05/20 07:02:37;;;;;;;;;;;20.30;92.50;;;;;;4591767;19;19922;-22
2022/05/20 07:04:08;;;;;;;;;;;20.30;92.70;;;;;;4590378;19;20348;-21
2022/05/20 07:05:39;;;;;;;;;;;20.40;92.40;;;;;;4591356;19;20257;-22
2022/05/20 07:07:10;;;;;;;;;;;20.40;92.50;;;;;;4591262;19;19923;-22
2022/05/20 07:08:43;;;;;;;;;;;20.50;92.20;;;;;;4591698;19;19911;-21
2022/05/20 07:10:14;;;;;;;;;;;20.60;92.60;;;;;;4588516;19;19922;-21
2022/05/20 07:11:46;;;;;;;;;;;20.60;92.30;;;;;;4588964;19;19926;-21
2022/05/20 07:13:17;;;;;;;;;;;20.60;92.20;;;;;;4590527;19;19915;-22
2022/05/20 07:14:48;;;;;;;;;;;20.60;92.40;;;;;;4590260;19;20326;-21
2022/05/20 07:16:19;;;;;;;;;;;20.60;92.10;;;;;;4590949;19;19992;-20
2022/05/20 07:17:50;;;;;;;;;;;20.50;92.00;;;;;;4590436;19;19923;-21
2022/05/20 07:19:21;;;;;;;;;;;20.60;92.30;;;;;;4592123;19;20337;-21
2022/05/20 07:20:53;;;;;;;;;;;20.60;91.90;;;;;;4593265;19;20249;-21
2022/05/20 07:22:23;;;;;;;;;;;20.60;93.70;;;;;;4593062;19;19982;-21
2022/05/20 07:23:55;;;;;;;;;;;20.80;93.90;;;;;;4590904;19;19935;-22
2022/05/20 07:25:26;;;;;;;;;;;21.00;93.50;;;;;;4592580;19;19911;-21
2022/05/20 07:26:56;;;;;;;;;;;21.10;93.50;;;;;;4592497;19;19951;-21
2022/05/20 07:28:28;;;;;;;;;;;21.20;92.70;;;;;;4592410;19;20251;-21
2022/05/20 07:29:59;;;;;;;;;;;21.20;93.40;;;;;;4592722;19;19952;-21
2022/05/20 07:31:30;;;;;;;;;;;21.20;92.20;;;;;;4592849;19;20337;-22
2022/05/20 07:33:01;;;;;;;;;;;21.10;91.60;;;;;;4591610;19;19927;-21
2022/05/20 07:34:33;;;;;;;;;;;21.10;93.40;;;;;;4592034;19;19922;-21
2022/05/20 07:36:05;;;;;;;;;;;21.30;93.70;;;;;;4593006;19;20345;-22
2022/05/20 07:37:35;;;;;;;;;;;21.50;93.30;;;;;;4592822;19;20340;-22
2022/05/20 07:39:08;;;;;;;;;;;21.60;93.10;;;;;;4592087;19;19921;-22
2022/05/20 07:40:39;;;;;;;;;;;21.40;92.30;;;;;;4591914;19;19923;-22
2022/05/20 07:42:11;;;;;;;;;;;21.60;93.60;;;;;;4592992;19;19915;-23
2022/05/20 07:43:42;;;;;;;;;;;21.70;93.40;;;;;;4592771;19;19911;-22
2022/05/20 07:45:13;;;;;;;;;;;21.70;93.40;;;;;;4592804;19;19910;-22
2022/05/20 07:46:44;;;;;;;;;;;21.70;92.80;;;;;;4592532;19;20317;-22
2022/05/20 07:48:15;;;;;;;;;;;21.60;92.60;;;;;;4592387;19;20310;-21
2022/05/20 07:49:46;;;;;;;;;;;21.40;92.40;;;;;;4591881;19;19918;-21
2022/05/20 07:51:18;;;;;;;;;;;21.40;93.50;;;;;;4591145;19;19978;-21
2022/05/20 07:54:42;;;;;;;;;;;21.90;93.30;;;;;;4591293;19;20013;-20
2022/05/20 07:56:15;;;;;;;;;;;22.00;92.80;;;;;;4591828;19;19912;-21
2022/05/20 07:57:46;;;;;;;;;;;22.00;92.80;;;;;;4592302;19;19922;-22
2022/05/20 07:59:24;;;;;;;;;;;21.90;93.00;;;;;;4591014;19;19921;-21
2022/05/20 08:00:59;;;;;;;;;;;21.90;93.30;;;;;;4591850;19;19990;-21
2022/05/20 08:02:30;;;;;;;;;;;22.00;92.90;;;;;;4592194;19;20349;-22
2022/05/20 08:05:55;;;;;;;;;;;22.20;93.10;;;;;;4590977;19;19922;-22
2022/05/20 08:07:38;;;;;;;;;;;22.30;92.80;;;;;;4590866;19;19923;-21
2022/05/20 08:09:10;;;;;;;;;;;22.40;92.80;;;;;;4591399;19;19922;-21
2022/05/20 08:10:43;;;;;;;;;;;22.40;92.30;;;;;;4589957;19;19914;-21
2022/05/20 08:12:14;;;;;;;;;;;22.40;92.80;;;;;;4591612;19;19919;-21
2022/05/20 08:13:47;;;;;;;;;;;22.50;92.70;;;;;;4592078;19;20393;-21
2022/05/20 08:15:18;;;;;;;;;;;22.60;92.70;;;;;;4591506;19;20553;-22
2022/05/20 08:16:49;;;;;;;;;;;22.60;92.00;;;;;;4591036;19;19939;-21
2022/05/20 08:18:20;;;;;;;;;;;22.60;92.00;;;;;;4591380;19;19910;-21
2022/05/20 08:19:52;;;;;;;;;;;22.60;92.00;;;;;;4592013;19;19921;-21
2022/05/20 08:21:23;;;;;;;;;;;22.50;91.90;;;;;;4590718;19;19911;-20
2022/05/20 08:22:54;;;;;;;;;;;22.40;91.90;;;;;;4591430;19;19914;-21
2022/05/20 08:24:25;;;;;;;;;;;22.50;92.10;;;;;;4590634;19;19925;-21
2022/05/20 08:25:56;;;;;;;;;;;22.40;92.00;;;;;;4591525;19;19930;-21
2022/05/20 08:27:28;;;;;;;;;;;22.30;92.70;;;;;;4590012;19;19954;-21
2022/05/20 08:28:59;;;;;;;;;;;22.40;92.80;;;;;;4591169;19;19922;-21
2022/05/20 08:30:30;;;;;;;;;;;22.30;93.10;;;;;;4591432;19;20345;-22
2022/05/20 08:32:01;;;;;;;;;;;22.50;93.00;;;;;;4591726;19;19943;-21
2022/05/20 08:33:32;;;;;;;;;;;22.40;93.10;;;;;;4591446;19;19943;-21
2022/05/20 08:35:04;;;;;;;;;;;22.40;93.20;;;;;;4589849;19;19914;-21
2022/05/20 08:36:35;;;;;;;;;;;22.50;93.10;;;;;;4591212;19;19914;-21
2022/05/20 08:38:06;;;;;;;;;;;22.50;92.60;;;;;;4592119;19;19923;-21
2022/05/20 08:39:37;;;;;;;;;;;22.60;93.10;;;;;;4591911;19;19925;-21
2022/05/20 08:41:08;;;;;;;;;;;22.60;93.20;;;;;;4591099;19;19930;-21
2022/05/20 08:42:38;;;;;;;;;;;22.80;92.90;;;;;;4591394;19;19930;-21
2022/05/20 08:44:12;;;;;;;;;;;22.90;93.00;;;;;;4590730;19;20093;-22
2022/05/20 08:45:43;;;;;;;;;;;22.90;92.40;;;;;;4590304;19;19915;-21
2022/05/20 08:47:24;;;;;;;;;;;22.90;92.80;;;;;;4590842;19;19935;-22
2022/05/20 08:48:55;;;;;;;;;;;22.90;92.60;;;;;;4589976;19;19918;-21
2022/05/20 08:50:33;;;;;;;;;;;22.60;93.50;;;;;;4589799;19;19919;-22
2022/05/20 08:52:04;;;;;;;;;;;22.40;93.40;;;;;;4590921;19;19970;-20
2022/05/20 08:53:35;;;;;;;;;;;22.40;94.40;;;;;;4591278;19;19922;-21
2022/05/20 08:55:06;;;;;;;;;;;22.40;94.20;;;;;;4589643;19;19970;-20
2022/05/20 08:56:38;;;;;;;;;;;22.60;93.90;;;;;;4590079;19;19939;-21
2022/05/20 08:58:09;;;;;;;;;;;22.70;94.20;;;;;;4590789;19;20254;-21
2022/05/20 08:59:40;;;;;;;;;;;23.00;94.00;;;;;;4589856;19;19915;-21
2022/05/20 09:01:11;;;;;;;;;;;23.00;94.00;;;;;;4591042;19;19915;-21
2022/05/20 09:02:42;;;;;;;;;;;23.10;93.40;;;;;;4591548;19;19923;-21
2022/05/20 09:04:14;;;;;;;;;;;23.10;93.90;;;;;;4589977;19;19919;-21
2022/05/20 09:05:45;;;;;;;;;;;23.00;93.90;;;;;;4590885;19;19919;-21
2022/05/20 09:07:16;;;;;;;;;;;23.30;93.70;;;;;;4590988;19;19939;-21
2022/05/20 09:09:06;;;;;;;;;;;23.40;93.30;;;;;;4591135;19;19915;-21
2022/05/20 09:10:47;;;;;;;;;;;23.40;93.50;;;;;;4591061;19;19921;-21
2022/05/20 09:12:35;;;;;;;;;;;23.40;93.40;;;;;;4590588;19;20337;-21
2022/05/20 09:16:01;;;;;;;;;;;23.40;93.00;;;;;;4590992;19;19910;-22
2022/05/20 09:17:40;;;;;;;;;;;23.40;93.30;;;;;;4590757;19;20343;-21
2022/05/20 09:19:13;;;;;;;;;;;23.40;93.10;;;;;;4590994;19;19926;-21
2022/05/20 09:20:46;;;;;;;;;;;23.20;93.60;;;;;;4590386;19;20329;-21